createdAt,value
2023-05-08T00:00:40.570Z,0.77
2023-05-08T00:03:08.374Z,0.90
2023-05-08T00:05:36.155Z,2.53
2023-05-08T00:08:03.834Z,0.80
2023-05-08T00:10:31.854Z,0.85
2023-05-08T00:13:00.905Z,1.02
2023-05-08T00:15:28.676Z,1.63
2023-05-08T00:17:56.373Z,0.47
2023-05-08T00:20:24.261Z,0.57
2023-05-08T00:22:51.905Z,1.00
2023-05-08T00:25:19.622Z,0.77
2023-05-08T00:27:47.486Z,0.80
2023-05-08T00:30:16.831Z,0.35
2023-05-08T00:32:44.615Z,0.98
2023-05-08T00:35:12.322Z,0.60
2023-05-08T00:37:41.101Z,1.45
2023-05-08T00:40:09.676Z,1.67
2023-05-08T00:42:37.406Z,0.65
2023-05-08T00:45:05.514Z,1.80
2023-05-08T00:47:35.020Z,0.77
2023-05-08T00:50:03.372Z,0.38
2023-05-08T00:52:32.046Z,0.60
2023-05-08T00:55:00.251Z,0.60
2023-05-08T00:57:28.241Z,1.23
2023-05-08T00:59:56.605Z,0.88
2023-05-08T01:02:24.406Z,0.82
2023-05-08T01:04:54.788Z,0.77
2023-05-08T01:07:22.805Z,0.95
2023-05-08T01:09:51.081Z,0.98
2023-05-08T01:12:23.112Z,1.05
2023-05-08T01:14:59.631Z,0.82
2023-05-08T01:17:33.310Z,0.65
2023-05-08T01:20:08.348Z,0.77
2023-05-08T01:22:59.777Z,0.70
2023-05-08T01:25:44.682Z,0.95
2023-05-08T01:28:30.130Z,0.90
2023-05-08T01:31:04.181Z,1.00
2023-05-08T01:33:36.649Z,0.80
2023-05-08T01:36:10.004Z,1.33
2023-05-08T01:38:41.368Z,0.68
2023-05-08T01:41:11.408Z,1.02
2023-05-08T01:43:45.673Z,1.48
2023-05-08T01:46:15.835Z,0.57
2023-05-08T01:48:48.192Z,0.95
2023-05-08T01:51:22.782Z,0.38
2023-05-08T01:53:52.139Z,0.90
2023-05-08T01:56:22.172Z,1.85
2023-05-08T01:58:50.481Z,0.50
2023-05-08T02:01:19.580Z,0.70
2023-05-08T02:03:49.637Z,1.15
2023-05-08T02:06:18.890Z,0.70
2023-05-08T02:08:47.451Z,0.90
2023-05-08T02:11:16.168Z,1.05
2023-05-08T02:13:45.684Z,0.98
2023-05-08T02:16:13.692Z,0.80
2023-05-08T02:18:43.782Z,0.80
2023-05-08T02:21:13.340Z,0.50
2023-05-08T02:23:42.315Z,1.17
2023-05-08T02:26:10.639Z,0.80
2023-05-08T02:28:38.884Z,1.63
2023-05-08T02:31:06.868Z,1.40
2023-05-08T02:33:35.239Z,1.00
2023-05-08T02:36:03.426Z,0.45
2023-05-08T02:38:32.699Z,1.30
2023-05-08T02:41:03.354Z,0.95
2023-05-08T02:43:31.137Z,0.68
2023-05-08T02:46:01.733Z,1.23
2023-05-08T02:48:34.292Z,0.77
2023-05-08T02:51:04.218Z,0.95
2023-05-08T02:53:36.852Z,1.23
2023-05-08T02:56:06.881Z,0.93
2023-05-08T02:58:38.418Z,0.90
2023-05-08T03:01:08.081Z,1.40
2023-05-08T03:03:39.086Z,1.30
2023-05-08T03:06:10.145Z,1.08
2023-05-08T03:08:39.277Z,0.88
2023-05-08T03:11:09.803Z,1.73
2023-05-08T03:13:39.862Z,1.45
2023-05-08T03:16:10.554Z,0.90
2023-05-08T03:18:42.808Z,1.58
2023-05-08T03:21:10.885Z,1.33
2023-05-08T03:23:40.828Z,1.30
2023-05-08T03:26:08.877Z,1.48
2023-05-08T03:28:37.622Z,0.80
2023-05-08T03:31:06.310Z,2.03
2023-05-08T03:33:34.307Z,1.45
2023-05-08T03:36:02.480Z,2.08
2023-05-08T03:38:30.253Z,0.95
2023-05-08T03:41:00.286Z,0.82
2023-05-08T03:43:29.085Z,2.05
2023-05-08T03:45:57.703Z,0.80
2023-05-08T03:48:26.331Z,1.60
2023-05-08T03:50:55.098Z,1.05
2023-05-08T03:53:23.052Z,0.98
2023-05-08T03:55:51.217Z,1.05
2023-05-08T03:58:34.048Z,0.93
2023-05-08T04:01:05.040Z,1.25
2023-05-08T04:03:38.581Z,1.58
2023-05-08T04:06:09.674Z,0.98
2023-05-08T04:08:43.303Z,1.10
2023-05-08T04:11:17.409Z,1.02
2023-05-08T04:13:50.604Z,0.93
2023-05-08T04:16:22.806Z,1.10
2023-05-08T04:18:51.758Z,1.38
2023-05-08T04:21:21.067Z,1.15
2023-05-08T04:23:51.022Z,1.00
2023-05-08T04:26:19.252Z,1.25
2023-05-08T04:28:50.482Z,1.80
2023-05-08T04:31:18.453Z,1.75
2023-05-08T04:33:46.906Z,1.23
2023-05-08T04:36:15.307Z,2.17
2023-05-08T04:38:45.163Z,0.73
2023-05-08T04:41:14.955Z,1.40
2023-05-08T04:43:43.096Z,2.83
2023-05-08T04:46:12.295Z,1.05
2023-05-08T04:48:40.497Z,1.63
2023-05-08T04:51:08.219Z,0.95
2023-05-08T04:53:35.933Z,1.05
2023-05-08T04:56:03.614Z,2.53
2023-05-08T04:58:31.307Z,2.00
2023-05-08T05:01:02.766Z,1.05
2023-05-08T05:03:31.909Z,1.08
2023-05-08T05:05:59.940Z,1.98
2023-05-08T05:08:28.030Z,1.40
2023-05-08T05:10:57.005Z,1.52
2023-05-08T05:13:24.910Z,2.80
2023-05-08T05:15:54.468Z,2.10
2023-05-08T05:18:23.185Z,1.25
2023-05-08T05:20:53.734Z,2.78
2023-05-08T05:23:21.497Z,1.40
2023-05-08T05:25:49.196Z,2.22
2023-05-08T05:28:17.199Z,1.40
2023-05-08T05:30:47.579Z,2.80
2023-05-08T05:33:15.602Z,1.67
2023-05-08T05:35:43.443Z,1.25
2023-05-08T05:38:12.614Z,1.75
2023-05-08T05:40:40.318Z,1.77
2023-05-08T05:43:08.015Z,2.92
2023-05-08T05:45:36.131Z,1.75
2023-05-08T05:48:04.400Z,1.80
2023-05-08T05:50:33.579Z,1.77
2023-05-08T05:53:01.349Z,1.92
2023-05-08T05:55:30.426Z,2.15
2023-05-08T05:57:59.309Z,2.67
2023-05-08T06:00:27.574Z,2.22
2023-05-08T06:02:57.406Z,1.45
2023-05-08T06:05:25.470Z,2.45
2023-05-08T06:07:53.180Z,2.38
2023-05-08T06:10:21.042Z,2.53
2023-05-08T06:12:50.155Z,2.90
2023-05-08T06:15:18.461Z,1.83
2023-05-08T06:17:47.638Z,2.35
2023-05-08T06:20:15.601Z,1.90
2023-05-08T06:22:43.370Z,2.30
2023-05-08T06:25:11.715Z,2.05
2023-05-08T06:27:40.016Z,1.35
2023-05-08T06:30:10.802Z,2.40
2023-05-08T06:32:38.623Z,1.48
2023-05-08T06:35:06.734Z,1.23
2023-05-08T06:37:34.436Z,3.63
2023-05-08T06:40:11.692Z,2.25
2023-05-08T06:42:40.573Z,3.40
2023-05-08T06:45:10.379Z,1.50
2023-05-08T06:47:38.284Z,4.00
2023-05-08T06:50:06.750Z,4.28
2023-05-08T06:52:34.415Z,2.15
2023-05-08T06:55:02.073Z,2.78
2023-05-08T06:57:30.340Z,3.13
2023-05-08T06:59:58.016Z,2.75
2023-05-08T07:02:27.044Z,3.33
2023-05-08T07:04:54.832Z,3.50
2023-05-08T07:07:22.561Z,3.65
2023-05-08T07:09:51.071Z,3.38
2023-05-08T07:12:19.100Z,4.93
2023-05-08T07:14:46.776Z,5.80
2023-05-08T07:17:14.426Z,3.63
2023-05-08T07:19:43.455Z,4.07
2023-05-08T07:22:11.176Z,4.32
2023-05-08T07:24:38.911Z,2.35
2023-05-08T07:27:06.569Z,5.10
2023-05-08T07:29:35.869Z,4.07
2023-05-08T07:32:03.588Z,4.53
2023-05-08T07:34:31.306Z,4.50
2023-05-08T07:37:00.352Z,3.63
2023-05-08T07:39:28.096Z,5.18
2023-05-08T07:41:55.784Z,3.78
2023-05-08T07:44:23.473Z,4.25
2023-05-08T07:46:51.204Z,5.07
2023-05-08T07:49:19.009Z,4.78
2023-05-08T07:51:46.685Z,6.60
2023-05-08T07:54:15.716Z,5.95
2023-05-08T07:56:43.400Z,4.28
2023-05-08T07:59:11.075Z,4.18
2023-05-08T08:01:39.671Z,6.82
2023-05-08T08:04:07.664Z,3.97
2023-05-08T08:06:36.511Z,6.70
2023-05-08T08:09:04.237Z,4.85
2023-05-08T08:11:33.497Z,5.50
2023-05-08T08:14:01.287Z,6.35
2023-05-08T08:16:29.094Z,4.97
2023-05-08T08:18:56.816Z,7.75
2023-05-08T08:21:24.486Z,41.92
2023-05-08T08:23:52.125Z,40.03
2023-05-08T08:26:19.860Z,45.03
2023-05-08T08:28:48.913Z,44.90
2023-05-08T08:31:17.252Z,48.13
2023-05-08T08:33:44.928Z,42.55
2023-05-08T08:36:15.534Z,44.17
2023-05-08T08:38:43.298Z,41.45
2023-05-08T08:41:11.064Z,40.70
2023-05-08T08:43:43.282Z,10.63
2023-05-08T08:46:14.679Z,11.40
2023-05-08T08:48:44.711Z,12.10
2023-05-08T08:51:15.425Z,11.40
2023-05-08T08:53:44.472Z,11.50
2023-05-08T08:56:12.499Z,11.82
2023-05-08T08:58:43.426Z,12.98
2023-05-08T09:01:16.273Z,13.10
2023-05-08T09:03:44.944Z,13.10
2023-05-08T09:06:13.498Z,12.80
2023-05-08T09:08:41.898Z,14.73
2023-05-08T09:11:09.634Z,13.52
2023-05-08T09:13:37.399Z,14.20
2023-05-08T09:16:05.395Z,14.35
2023-05-08T09:18:34.503Z,14.40
2023-05-08T09:21:02.610Z,15.50
2023-05-08T09:23:30.443Z,16.52
2023-05-08T09:25:58.151Z,16.13
2023-05-08T09:28:26.858Z,15.38
2023-05-08T09:30:55.306Z,14.80
2023-05-08T09:33:23.787Z,15.68
2023-05-08T09:35:52.923Z,15.00
2023-05-08T09:38:36.461Z,15.63
2023-05-08T09:41:08.524Z,15.20
2023-05-08T09:43:36.242Z,15.40
2023-05-08T09:46:20.808Z,14.85
2023-05-08T09:48:48.591Z,14.63
2023-05-08T09:51:17.759Z,14.93
2023-05-08T09:53:45.653Z,14.93
2023-05-08T09:56:13.459Z,13.02
2023-05-08T09:58:41.779Z,13.52
2023-05-08T10:01:09.775Z,15.18
2023-05-08T10:03:49.785Z,12.82
2023-05-08T10:06:18.837Z,13.25
2023-05-08T10:08:47.036Z,13.32
2023-05-08T10:11:15.382Z,13.52
2023-05-08T10:13:43.914Z,13.90
2023-05-08T10:16:14.916Z,12.90
2023-05-08T10:18:47.016Z,12.70
2023-05-08T10:21:15.150Z,12.70
2023-05-08T10:23:44.602Z,14.13
2023-05-08T10:26:14.148Z,11.82
2023-05-08T10:28:44.099Z,12.93
2023-05-08T10:31:13.290Z,13.05
2023-05-08T10:33:41.986Z,11.48
2023-05-08T10:36:10.804Z,12.98
2023-05-08T10:38:38.992Z,13.10
2023-05-08T10:41:08.247Z,12.23
2023-05-08T10:43:37.152Z,2.55
2023-05-08T10:46:09.336Z,6.47
2023-05-08T10:48:49.335Z,3.08
2023-05-08T10:51:22.974Z,2.42
2023-05-08T10:53:52.936Z,5.05
2023-05-08T10:56:26.194Z,5.00
2023-05-08T10:58:56.789Z,4.07
2023-05-08T11:01:24.711Z,4.63
2023-05-08T11:03:55.096Z,5.38
2023-05-08T11:06:41.141Z,6.32
2023-05-08T11:09:08.971Z,6.45
2023-05-08T11:11:40.069Z,5.03
2023-05-08T11:14:16.017Z,7.45
2023-05-08T11:17:02.244Z,5.30
2023-05-08T11:19:30.391Z,7.15
2023-05-08T11:22:13.683Z,4.57
2023-05-08T11:24:42.063Z,3.72
2023-05-08T11:27:11.106Z,3.65
2023-05-08T11:29:38.939Z,5.07
2023-05-08T11:32:06.742Z,2.42
2023-05-08T11:34:47.529Z,3.15
2023-05-08T11:37:18.817Z,3.20
2023-05-08T11:39:46.643Z,3.17
2023-05-08T11:42:32.795Z,3.45
2023-05-08T11:45:05.073Z,4.85
2023-05-08T11:47:37.760Z,5.00
2023-05-08T11:50:06.138Z,4.93
2023-05-08T11:52:34.371Z,3.75
2023-05-08T11:55:02.828Z,2.75
2023-05-08T11:57:31.425Z,4.00
2023-05-08T11:59:59.107Z,3.30
2023-05-08T12:02:38.061Z,3.97
2023-05-08T12:05:06.395Z,2.20
2023-05-08T12:07:34.213Z,3.35
2023-05-08T12:10:02.392Z,3.47
2023-05-08T12:12:39.684Z,3.35
2023-05-08T12:15:08.249Z,4.10
2023-05-08T12:17:36.456Z,4.95
2023-05-08T12:20:15.688Z,2.63
2023-05-08T12:22:44.179Z,3.58
2023-05-08T12:25:13.081Z,4.53
2023-05-08T12:27:40.971Z,3.55
2023-05-08T12:30:10.630Z,3.08
2023-05-08T12:32:39.082Z,1.92
2023-05-08T12:35:08.227Z,1.67
2023-05-08T12:37:38.310Z,3.65
2023-05-08T12:40:07.033Z,3.55
2023-05-08T12:42:44.818Z,2.55
2023-05-08T12:45:18.338Z,3.33
2023-05-08T12:47:49.325Z,2.20
2023-05-08T12:50:17.386Z,3.00
2023-05-08T12:52:47.193Z,2.55
2023-05-08T12:55:21.418Z,3.50
2023-05-08T12:57:49.133Z,2.10
2023-05-08T13:00:17.751Z,2.42
2023-05-08T13:02:54.929Z,2.30
2023-05-08T13:05:23.178Z,3.75
2023-05-08T13:07:52.383Z,3.03
2023-05-08T13:10:22.534Z,2.80
2023-05-08T13:12:52.351Z,1.23
2023-05-08T13:15:21.233Z,2.88
2023-05-08T13:17:49.117Z,3.13
2023-05-08T13:20:16.967Z,2.20
2023-05-08T13:22:44.799Z,2.42
2023-05-08T13:25:14.029Z,1.50
2023-05-08T13:27:41.843Z,2.85
2023-05-08T13:30:09.962Z,1.55
2023-05-08T13:32:37.688Z,2.45
2023-05-08T13:35:05.727Z,3.55
2023-05-08T13:37:33.451Z,1.65
2023-05-08T13:40:01.133Z,1.85
2023-05-08T13:42:30.629Z,2.53
2023-05-08T13:44:58.386Z,1.67
2023-05-08T13:47:26.444Z,3.13
2023-05-08T13:49:54.269Z,2.17
2023-05-08T13:52:21.944Z,2.30
2023-05-08T13:54:49.642Z,1.13
2023-05-08T13:57:17.441Z,2.22
2023-05-08T13:59:46.501Z,3.42
2023-05-08T14:02:14.363Z,3.05
2023-05-08T14:04:42.567Z,2.17
2023-05-08T14:07:10.358Z,3.78
2023-05-08T14:09:38.034Z,2.95
2023-05-08T14:12:05.842Z,3.15
2023-05-08T14:14:34.542Z,3.33
2023-05-08T14:17:04.882Z,2.35
2023-05-08T14:19:32.574Z,3.63
2023-05-08T14:22:00.723Z,3.75
2023-05-08T14:24:28.411Z,3.38
2023-05-08T14:26:56.118Z,4.15
2023-05-08T14:29:23.785Z,3.85
2023-05-08T14:31:51.533Z,3.30
2023-05-08T14:34:20.629Z,3.25
2023-05-08T14:36:48.321Z,3.75
2023-05-08T14:39:16.026Z,3.38
2023-05-08T14:41:52.970Z,4.22
2023-05-08T14:44:27.385Z,3.80
2023-05-08T14:46:55.061Z,4.00
2023-05-08T14:49:36.535Z,3.53
2023-05-08T14:52:06.111Z,4.18
2023-05-08T14:54:34.337Z,4.00
2023-05-08T14:57:02.211Z,3.95
2023-05-08T14:59:30.004Z,3.70
2023-05-08T15:01:57.735Z,4.35
2023-05-08T15:04:26.798Z,3.95
2023-05-08T15:06:54.476Z,4.55
2023-05-08T15:09:22.129Z,4.65
2023-05-08T15:11:49.807Z,3.90
2023-05-08T15:14:17.560Z,3.90
2023-05-08T15:16:45.325Z,4.95
2023-05-08T15:19:13.000Z,4.72
2023-05-08T15:21:42.043Z,4.72
2023-05-08T15:24:09.966Z,4.35
2023-05-08T15:26:37.650Z,3.92
2023-05-08T15:29:05.319Z,3.88
2023-05-08T15:31:33.059Z,4.15
2023-05-08T15:34:00.782Z,4.15
2023-05-08T15:36:29.397Z,4.95
2023-05-08T15:38:58.786Z,4.75
2023-05-08T15:41:26.450Z,4.28
2023-05-08T15:43:54.157Z,4.78
2023-05-08T15:46:21.927Z,4.82
2023-05-08T15:48:49.706Z,4.78
2023-05-08T15:51:17.404Z,4.88
2023-05-08T15:53:45.077Z,5.03
2023-05-08T15:56:14.148Z,4.30
2023-05-08T15:58:41.787Z,4.88
2023-05-08T16:01:09.478Z,5.53
2023-05-08T16:03:37.292Z,5.63
2023-05-08T16:06:05.275Z,5.13
2023-05-08T16:08:32.932Z,4.88
2023-05-08T16:11:01.208Z,4.70
2023-05-08T16:13:30.398Z,5.05
2023-05-08T16:16:02.828Z,4.53
2023-05-08T16:18:30.524Z,5.20
2023-05-08T16:20:58.177Z,4.93
2023-05-08T16:23:25.888Z,4.47
2023-05-08T16:25:53.594Z,4.47
2023-05-08T16:28:21.292Z,4.32
2023-05-08T16:30:50.345Z,3.95
2023-05-08T16:33:17.973Z,2.95
2023-05-08T16:35:45.685Z,3.75
2023-05-08T16:38:13.337Z,3.65
2023-05-08T16:40:41.807Z,4.30
2023-05-08T16:43:09.662Z,4.47
2023-05-08T16:45:37.311Z,4.20
2023-05-08T16:48:06.437Z,4.70
2023-05-08T16:50:34.265Z,4.22
2023-05-08T16:53:02.206Z,4.22
2023-05-08T16:55:29.862Z,4.38
2023-05-08T16:57:57.497Z,4.97
2023-05-08T17:00:25.202Z,4.90
2023-05-08T17:02:52.927Z,4.45
2023-05-08T17:05:22.181Z,4.80
2023-05-08T17:07:49.936Z,5.60
2023-05-08T17:10:17.650Z,5.30
2023-05-08T17:12:45.377Z,5.32
2023-05-08T17:15:14.589Z,5.22
2023-05-08T17:17:42.661Z,5.15
2023-05-08T17:20:11.098Z,5.30
2023-05-08T17:22:40.319Z,5.10
2023-05-08T17:25:08.622Z,5.70
2023-05-08T17:27:38.430Z,5.30
2023-05-08T17:30:06.734Z,5.28
2023-05-08T17:32:34.430Z,5.40
2023-05-08T17:35:02.147Z,5.20
2023-05-08T17:37:30.054Z,4.88
2023-05-08T17:39:59.092Z,5.68
2023-05-08T17:42:26.784Z,4.82
2023-05-08T17:44:54.474Z,4.72
2023-05-08T17:47:22.214Z,5.75
2023-05-08T17:49:49.985Z,5.68
2023-05-08T17:52:17.642Z,4.97
2023-05-08T17:54:45.387Z,5.45
2023-05-08T17:57:14.444Z,5.18
2023-05-08T17:59:42.193Z,5.20
2023-05-08T18:02:09.949Z,4.95
2023-05-08T18:04:37.634Z,4.50
2023-05-08T18:07:05.289Z,5.57
2023-05-08T18:09:32.958Z,5.40
2023-05-08T18:12:02.504Z,4.60
2023-05-08T18:14:32.314Z,4.82
2023-05-08T18:17:00.037Z,4.70
2023-05-08T18:19:27.944Z,4.88
2023-05-08T18:21:55.651Z,4.45
2023-05-08T18:24:23.298Z,4.40
2023-05-08T18:26:52.610Z,4.13
2023-05-08T18:29:20.646Z,4.00
2023-05-08T18:31:49.756Z,4.20
2023-05-08T18:34:17.563Z,4.00
2023-05-08T18:36:45.260Z,4.15
2023-05-08T18:39:12.970Z,3.67
2023-05-08T18:41:41.504Z,3.60
2023-05-08T18:44:11.333Z,3.78
2023-05-08T18:46:39.140Z,3.33
2023-05-08T18:49:08.260Z,4.55
2023-05-08T18:51:35.908Z,4.10
2023-05-08T18:54:03.766Z,4.60
2023-05-08T18:56:34.150Z,4.05
2023-05-08T18:59:01.877Z,4.18
2023-05-08T19:01:29.542Z,4.07
2023-05-08T19:03:57.262Z,4.03
2023-05-08T19:06:26.320Z,4.10
2023-05-08T19:08:54.048Z,3.70
2023-05-08T19:11:21.843Z,3.50
2023-05-08T19:13:50.086Z,3.78
2023-05-08T19:16:17.778Z,3.67
2023-05-08T19:18:45.519Z,3.70
2023-05-08T19:21:13.163Z,1.02
2023-05-08T19:23:42.224Z,1.55
2023-05-08T19:26:09.932Z,2.55
2023-05-08T19:28:37.629Z,1.83
2023-05-08T19:31:05.419Z,1.60
2023-05-08T19:33:33.126Z,1.23
2023-05-08T19:36:00.877Z,1.30
2023-05-08T19:38:28.595Z,1.55
2023-05-08T19:40:58.122Z,0.90
2023-05-08T19:43:26.059Z,0.63
2023-05-08T19:45:53.804Z,2.03
2023-05-08T19:48:21.540Z,1.17
2023-05-08T19:50:49.342Z,1.75
2023-05-08T19:53:18.103Z,0.95
2023-05-08T19:55:46.092Z,1.08
2023-05-08T19:58:17.416Z,0.57
2023-05-08T20:00:50.793Z,0.95
2023-05-08T20:03:19.136Z,0.90
2023-05-08T20:05:47.126Z,0.70
2023-05-08T20:08:14.831Z,0.80
2023-05-08T20:10:42.474Z,0.75
2023-05-08T20:13:10.148Z,1.15
2023-05-08T20:15:39.204Z,1.52
2023-05-08T20:18:07.034Z,0.70
2023-05-08T20:20:34.803Z,0.80
2023-05-08T20:23:02.902Z,1.25
2023-05-08T20:25:30.901Z,1.42
2023-05-08T20:27:58.617Z,0.63
2023-05-08T20:30:26.448Z,1.33
2023-05-08T20:32:55.662Z,1.35
2023-05-08T20:35:23.746Z,0.82
2023-05-08T20:37:51.521Z,1.08
2023-05-08T20:40:19.181Z,1.55
2023-05-08T20:42:46.960Z,0.93
2023-05-08T20:45:14.865Z,0.98
2023-05-08T20:47:42.586Z,0.93
2023-05-08T20:50:12.101Z,1.20
2023-05-08T20:52:41.906Z,0.50
2023-05-08T20:55:11.068Z,0.63
2023-05-08T20:57:38.888Z,2.28
2023-05-08T21:00:07.168Z,0.52
2023-05-08T21:02:34.896Z,0.88
2023-05-08T21:05:02.725Z,0.75
2023-05-08T21:07:31.907Z,1.15
2023-05-08T21:09:59.797Z,1.27
2023-05-08T21:12:27.493Z,0.50
2023-05-08T21:14:55.151Z,1.17
2023-05-08T21:17:22.868Z,0.70
2023-05-08T21:19:50.568Z,0.73
2023-05-08T21:22:18.385Z,0.85
2023-05-08T21:24:47.421Z,1.15
2023-05-08T21:27:15.068Z,0.63
2023-05-08T21:29:42.737Z,0.95
2023-05-08T21:32:10.538Z,0.65
2023-05-08T21:34:38.273Z,0.88
2023-05-08T21:37:06.003Z,1.02
2023-05-08T21:39:33.671Z,1.10
2023-05-08T21:42:03.212Z,0.52
2023-05-08T21:44:30.855Z,0.80
2023-05-08T21:46:58.524Z,1.00
2023-05-08T21:49:26.190Z,0.60
2023-05-08T21:51:54.132Z,0.93
2023-05-08T21:54:24.137Z,1.05
2023-05-08T21:56:51.784Z,0.50
2023-05-08T21:59:20.948Z,0.75
2023-05-08T22:01:48.668Z,0.77
2023-05-08T22:04:16.342Z,1.33
2023-05-08T22:06:44.556Z,0.60
2023-05-08T22:09:12.188Z,0.88
2023-05-08T22:11:39.853Z,1.08
2023-05-08T22:14:07.475Z,0.70
2023-05-08T22:16:36.881Z,0.52
2023-05-08T22:19:04.596Z,1.00
2023-05-08T22:21:32.949Z,0.50
2023-05-08T22:24:00.664Z,0.70
2023-05-08T22:26:29.066Z,0.50
2023-05-08T22:28:56.705Z,0.47
2023-05-08T22:31:24.432Z,0.50
2023-05-08T22:33:53.471Z,0.65
2023-05-08T22:36:23.798Z,0.40
2023-05-08T22:38:51.572Z,0.40
2023-05-08T22:41:19.255Z,0.50
2023-05-08T22:43:46.889Z,0.35
2023-05-08T22:46:14.699Z,0.65
2023-05-08T22:48:42.724Z,0.80
2023-05-08T22:51:11.749Z,0.90
2023-05-08T22:53:39.397Z,0.55
2023-05-08T22:56:07.175Z,0.47
2023-05-08T22:58:35.022Z,0.95
2023-05-08T23:01:02.720Z,0.68
2023-05-08T23:03:30.464Z,0.75
2023-05-08T23:05:58.138Z,0.82
2023-05-08T23:08:27.786Z,0.95
2023-05-08T23:10:55.436Z,0.40
2023-05-08T23:13:23.179Z,0.63
2023-05-08T23:15:50.858Z,0.80
2023-05-08T23:18:18.503Z,1.40
2023-05-08T23:20:46.141Z,1.05
2023-05-08T23:23:13.852Z,1.33
2023-05-08T23:25:43.710Z,1.15
2023-05-08T23:28:11.367Z,0.77
2023-05-08T23:30:39.010Z,0.43
2023-05-08T23:33:06.719Z,0.52
2023-05-08T23:35:34.391Z,0.85
2023-05-08T23:38:02.048Z,0.90
2023-05-08T23:40:29.892Z,0.75
2023-05-08T23:42:58.891Z,0.63
2023-05-08T23:45:26.599Z,1.15
2023-05-08T23:47:54.448Z,1.08
2023-05-08T23:50:22.309Z,0.80
2023-05-08T23:52:50.036Z,0.60
2023-05-08T23:55:17.740Z,1.35
2023-05-08T23:57:45.401Z,0.63
